WEATHER DATA

TODAY
Time Temp. Dewp. Hum. Bar.
00:00 -8.9 -10.1 90 1022.1
00:21 -9.1 -10.2 91 1022.4
00:30 -9 -10.1 91 1022.4
00:41 -8.9 -10 91 1022.4
01:01 -9 -9.9 92 1022.6
01:11 -8.9 -9.8 92 1022.6
01:22 -8.9 -9.8 92 1022.4
01:31 -8.8 -9.7 92 1022.4
01:41 -8.7 -9.6 92 1022.4
01:52 -8.5 -9.4 92 1022.3
02:02 -8.2 -9 93 1022.3
02:12 -8 -8.8 93 1022.2
02:21 -7.8 -8.6 93 1022.3
02:32 -7.7 -8.5 93 1022.3
02:42 -7.5 -8.3 93 1022.3
02:52 -7.4 -8.4 92 1022.2
03:02 -7.2 -8.2 92 1022.2
03:12 -7.1 -8.1 92 1022.1
03:22 -7 -8 92 1022.2
03:32 -6.9 -7.9 92 1022.2
03:43 -6.8 -7.8 92 1022.2
03:53 -6.7 -7.7 92 1022.3
04:03 -6.6 -7.6 92 1022.2
04:13 -6.5 -7.5 92 1022.2
04:23 -6.4 -7.4 92 1022
04:33 -6.3 -7.3 92 1021.9
04:43 -6.2 -7.2 92 1021.8
04:54 -6.1 -7.1 92 1021.9
05:03 -6.1 -7.1 92 1021.7
05:13 -6 -7 92 1021.9
05:23 -5.9 -6.9 92 1021.9
05:34 -5.9 -6.9 92 1021.7
05:44 -5.8 -6.8 92 1021.8
05:53 -5.7 -6.7 92 1021.5
06:04 -5.7 -6.7 92 1021.1
06:14 -5.5 -6.5 92 1021
06:24 -5.3 -6.1 93 1021.1
06:34 -5.2 -6 93 1021.1
06:44 -5.1 -5.9 93 1021.3
06:54 -5 -5.8 93 1021.4
07:04 -4.9 -5.7 93 1021.4
07:15 -4.8 -5.6 93 1021.2
07:25 -4.7 -5.5 93 1021.2
07:35 -4.5 -5.3 93 1021.3
07:44 -4.4 -5.3 93 1021.4
07:55 -4.3 -5.2 93 1021.3
08:05 -4.2 -5.1 93 1021.4
08:15 -4 -4.9 93 1021.4
08:25 -3.9 -4.8 93 1021.5
08:35 -3.8 -4.7 93 1021.5
08:45 -3.7 -4.6 93 1021.6
08:55 -3.5 -4.4 93 1021.6
09:06 -3.4 -4.3 93 1021.7
09:16 -3.4 -4.3 93 1021.6
09:25 -3.2 -4.1 93 1021.7
09:36 -3.1 -4 93 1021.7
09:46 -2.9 -3.8 93 1021.6
09:56 -2.8 -3.7 93 1021.6
10:06 -2.7 -3.6 93 1021.6
10:16 -2.6 -3.5 93 1021.7
10:26 -2.5 -3.4 93 1021.7
10:36 -2.5 -3.4 93 1021.6
10:46 -2.4 -3.3 93 1021.6
10:57 -2.4 -3.3 93 1021.6
11:07 -2.3 -3.2 93 1021.5
11:16 -2.2 -3.1 93 1021.4
11:27 -2.1 -3 93 1021.4
11:37 -2 -2.9 93 1021.3
11:47 -1.9 -2.8 93 1021.3
11:57 -1.8 -2.7 93 1021.4
12:07 -1.8 -2.7 93 1021.3
12:17 -1.7 -2.6 93 1021.3
12:27 -1.6 -2.5 93 1021.4
12:38 -1.6 -2.5 93 1021.2
12:48 -1.5 -2.4 93 1021.4
12:57 -1.4 -2.3 93 1021.3
13:07 -1.3 -2.2 93 1021.3
13:18 -1.2 -2.1 93 1021.3
13:28 -1.2 -2.1 93 1021.3
13:40 -1.1 -2 93 1021.3
13:50 -1.1 -2 93 1021.3
14:00 -1.1 -2 93 1021.3
14:11 -1 -1.9 93 1021.2
14:20 -1.1 -2 93 1021.3
14:30 -1.1 -2 93 1021.3
14:41 -1 -1.9 93 1021.4
14:51 -1 -1.9 93 1021.4
15:01 -1 -1.9 93 1021.3
15:10 -1 -1.9 93 1021.2
15:21 -1 -1.9 93 1021.1
15:31 -1 -1.9 93 1021
15:41 -1 -1.9 93 1021
15:51 -1.1 -2 93 1021.1
16:01 -1.1 -2 93 1021.2
16:11 -1.1 -2 93 1021.3
16:21 -1.1 -1.8 94 1021
16:32 -1.1 -1.8 94 1020.9
16:42 -1.1 -1.8 94 1020.9
16:52 -1.1 -1.8 94 1021
17:02 -1.1 -1.8 94 1020.9
17:12 -1.1 -1.8 94 1020.8
17:22 -1.1 -1.8 94 1020.9

DAY STATISTIC

2020-10-31
TEMPERATURE
AVERAGE
-4.1
HIGH
-1.0
14:11
LOW
-9.1
00:21
PRESSURE
AVERAGE
1021.6
HIGH
1022.6
01:01
LOW
1020.8
17:12
DEWPOINT
AVERAGE
-5.0
HIGH
-1.8
16:21
LOW
-10.2
00:21
HUMIDITY
AVERAGE
93
HIGH
94
16:21
LOW
90
00:00
TEMPERATURE (°C)
LOW
-9.1
HIGH
-1.0
AVERAGE
-4.1
PRESSURE (hpa)
LOW
1020.8
HIGH
1022.6
AVERAGE
1021.6
DEVICE